sensor_id;sensor_type;location;lat;lon;timestamp;pressure;altitude;pressure_sealevel;temperature;humidity
8705;BME280;4389;41.932;25.904;2023-02-16T00:01:24;102030.66;;;-0.90;90.06
8705;BME280;4389;41.932;25.904;2023-02-16T00:03:53;102023.50;;;-0.77;89.89
8705;BME280;4389;41.932;25.904;2023-02-16T00:06:21;102023.41;;;-0.71;89.66
8705;BME280;4389;41.932;25.904;2023-02-16T00:08:49;102022.69;;;-0.79;90.08
8705;BME280;4389;41.932;25.904;2023-02-16T00:11:20;102017.53;;;-0.81;90.38
8705;BME280;4389;41.932;25.904;2023-02-16T00:14:08;102023.59;;;-0.82;89.68
8705;BME280;4389;41.932;25.904;2023-02-16T00:16:36;102035.72;;;-0.82;89.51
8705;BME280;4389;41.932;25.904;2023-02-16T00:19:15;102027.22;;;-0.90;89.79
8705;BME280;4389;41.932;25.904;2023-02-16T00:21:43;102023.84;;;-0.95;89.84
8705;BME280;4389;41.932;25.904;2023-02-16T00:24:10;102023.78;;;-0.92;89.68
8705;BME280;4389;41.932;25.904;2023-02-16T00:26:37;102020.38;;;-0.94;90.29
8705;BME280;4389;41.932;25.904;2023-02-16T00:29:04;102020.25;;;-0.88;90.33
8705;BME280;4389;41.932;25.904;2023-02-16T00:31:30;102022.91;;;-0.91;89.26
8705;BME280;4389;41.932;25.904;2023-02-16T00:33:58;102029.03;;;-0.95;90.21
8705;BME280;4389;41.932;25.904;2023-02-16T00:36:26;102022.81;;;-0.85;89.70
8705;BME280;4389;41.932;25.904;2023-02-16T00:38:53;102029.72;;;-0.86;89.61
8705;BME280;4389;41.932;25.904;2023-02-16T00:41:21;102027.22;;;-0.90;89.54
8705;BME280;4389;41.932;25.904;2023-02-16T00:44:12;102027.47;;;-1.05;89.26
8705;BME280;4389;41.932;25.904;2023-02-16T00:46:41;102020.41;;;-0.97;90.19
8705;BME280;4389;41.932;25.904;2023-02-16T00:49:12;102021.19;;;-0.92;89.99
8705;BME280;4389;41.932;25.904;2023-02-16T00:51:41;102019.41;;;-0.89;89.77
8705;BME280;4389;41.932;25.904;2023-02-16T00:54:08;102025.50;;;-0.91;89.32
8705;BME280;4389;41.932;25.904;2023-02-16T00:56:35;102028.34;;;-1.05;89.69
8705;BME280;4389;41.932;25.904;2023-02-16T00:59:05;102019.25;;;-1.31;90.11
8705;BME280;4389;41.932;25.904;2023-02-16T01:01:34;102021.38;;;-1.57;91.61
8705;BME280;4389;41.932;25.904;2023-02-16T01:04:04;102021.31;;;-1.54;92.05
8705;BME280;4389;41.932;25.904;2023-02-16T01:06:31;102021.28;;;-1.51;92.60
8705;BME280;4389;41.932;25.904;2023-02-16T01:09:18;102017.72;;;-1.44;92.74
8705;BME280;4389;41.932;25.904;2023-02-16T01:12:04;102012.47;;;-1.41;92.67
8705;BME280;4389;41.932;25.904;2023-02-16T01:14:34;102010.72;;;-1.39;93.13
8705;BME280;4389;41.932;25.904;2023-02-16T01:17:01;102010.59;;;-1.32;92.84
8705;BME280;4389;41.932;25.904;2023-02-16T01:19:28;102006.53;;;-1.48;92.47
8705;BME280;4389;41.932;25.904;2023-02-16T01:21:55;102009.81;;;-1.37;92.09
8705;BME280;4389;41.932;25.904;2023-02-16T01:24:23;102006.22;;;-1.27;91.40
8705;BME280;4389;41.932;25.904;2023-02-16T01:26:50;102010.69;;;-1.36;91.28
8705;BME280;4389;41.932;25.904;2023-02-16T01:29:19;102008.00;;;-1.30;92.07
8705;BME280;4389;41.932;25.904;2023-02-16T01:31:46;102007.25;;;-1.38;91.37
8705;BME280;4389;41.932;25.904;2023-02-16T01:34:13;102007.25;;;-1.38;91.94
8705;BME280;4389;41.932;25.904;2023-02-16T01:36:42;102003.78;;;-1.37;91.72
8705;BME280;4389;41.932;25.904;2023-02-16T01:39:11;101996.19;;;-1.49;91.25
8705;BME280;4389;41.932;25.904;2023-02-16T01:44:37;101998.72;;;-1.46;91.61
8705;BME280;4389;41.932;25.904;2023-02-16T01:47:13;101999.75;;;-1.58;92.21
8705;BME280;4389;41.932;25.904;2023-02-16T01:49:41;101989.47;;;-1.64;92.26
8705;BME280;4389;41.932;25.904;2023-02-16T01:52:13;101992.03;;;-1.62;92.11
8705;BME280;4389;41.932;25.904;2023-02-16T01:54:47;101991.25;;;-1.67;91.63
8705;BME280;4389;41.932;25.904;2023-02-16T01:57:26;101998.91;;;-1.58;92.65
8705;BME280;4389;41.932;25.904;2023-02-16T02:00:11;101996.41;;;-1.63;92.08
8705;BME280;4389;41.932;25.904;2023-02-16T02:02:40;102002.66;;;-1.77;91.50
8705;BME280;4389;41.932;25.904;2023-02-16T02:05:20;101995.69;;;-1.74;92.30
8705;BME280;4389;41.932;25.904;2023-02-16T02:08:06;102003.38;;;-1.66;92.69
8705;BME280;4389;41.932;25.904;2023-02-16T02:10:40;102005.81;;;-1.57;92.05
8705;BME280;4389;41.932;25.904;2023-02-16T02:13:14;102006.63;;;-1.54;92.59
8705;BME280;4389;41.932;25.904;2023-02-16T02:15:43;102005.00;;;-1.59;91.90
8705;BME280;4389;41.932;25.904;2023-02-16T02:18:10;102010.13;;;-1.56;92.71
8705;BME280;4389;41.932;25.904;2023-02-16T02:20:48;101999.88;;;-1.65;92.61
8705;BME280;4389;41.932;25.904;2023-02-16T02:23:47;101998.03;;;-1.56;92.64
8705;BME280;4389;41.932;25.904;2023-02-16T02:29:32;102002.25;;;-1.50;92.69
8705;BME280;4389;41.932;25.904;2023-02-16T02:32:09;102008.50;;;-1.65;92.72
8705;BME280;4389;41.932;25.904;2023-02-16T02:34:49;102005.91;;;-1.63;92.72
8705;BME280;4389;41.932;25.904;2023-02-16T02:37:28;102003.44;;;-1.72;92.47
8705;BME280;4389;41.932;25.904;2023-02-16T02:40:04;102010.34;;;-1.73;92.14
8705;BME280;4389;41.932;25.904;2023-02-16T02:42:40;102006.06;;;-1.75;92.66
8705;BME280;4389;41.932;25.904;2023-02-16T02:45:16;102006.13;;;-1.78;92.48
8705;BME280;4389;41.932;25.904;2023-02-16T02:47:46;102007.91;;;-1.83;92.73
8705;BME280;4389;41.932;25.904;2023-02-16T02:50:36;102002.59;;;-1.74;92.89
8705;BME280;4389;41.932;25.904;2023-02-16T02:53:06;102000.94;;;-1.78;92.29
8705;BME280;4389;41.932;25.904;2023-02-16T02:55:36;102008.03;;;-1.92;92.59
8705;BME280;4389;41.932;25.904;2023-02-16T02:58:23;102009.63;;;-1.82;92.72
8705;BME280;4389;41.932;25.904;2023-02-16T03:01:10;102014.13;;;-1.95;92.59
8705;BME280;4389;41.932;25.904;2023-02-16T03:03:42;102011.44;;;-1.87;93.45
8705;BME280;4389;41.932;25.904;2023-02-16T03:06:14;102018.28;;;-1.83;93.04
8705;BME280;4389;41.932;25.904;2023-02-16T03:08:45;102015.59;;;-1.77;93.33
8705;BME280;4389;41.932;25.904;2023-02-16T03:11:16;102010.41;;;-1.77;92.93
8705;BME280;4389;41.932;25.904;2023-02-16T03:14:04;102011.31;;;-1.78;93.21
8705;BME280;4389;41.932;25.904;2023-02-16T03:16:37;102014.00;;;-1.86;92.81
8705;BME280;4389;41.932;25.904;2023-02-16T03:19:07;102012.97;;;-1.74;92.54
8705;BME280;4389;41.932;25.904;2023-02-16T03:21:54;102016.38;;;-1.71;92.08
8705;BME280;4389;41.932;25.904;2023-02-16T03:24:40;102012.19;;;-1.81;91.33
8705;BME280;4389;41.932;25.904;2023-02-16T03:27:27;102004.41;;;-1.79;91.27
8705;BME280;4389;41.932;25.904;2023-02-16T03:30:14;102009.69;;;-1.85;90.89
8705;BME280;4389;41.932;25.904;2023-02-16T03:32:45;102007.16;;;-1.91;91.07
8705;BME280;4389;41.932;25.904;2023-02-16T03:35:13;102014.19;;;-1.98;90.61
8705;BME280;4389;41.932;25.904;2023-02-16T03:37:40;102009.81;;;-1.97;90.50
8705;BME280;4389;41.932;25.904;2023-02-16T03:40:10;102013.22;;;-1.92;91.01
8705;BME280;4389;41.932;25.904;2023-02-16T03:42:59;102014.88;;;-1.88;90.03
8705;BME280;4389;41.932;25.904;2023-02-16T03:45:27;102009.00;;;-2.01;89.89
8705;BME280;4389;41.932;25.904;2023-02-16T03:47:55;102010.84;;;-2.09;89.71
8705;BME280;4389;41.932;25.904;2023-02-16T03:50:22;102016.84;;;-2.04;89.87
8705;BME280;4389;41.932;25.904;2023-02-16T03:52:51;102004.84;;;-2.12;89.68
8705;BME280;4389;41.932;25.904;2023-02-16T03:55:18;102008.50;;;-2.28;90.14
8705;BME280;4389;41.932;25.904;2023-02-16T03:57:45;102014.50;;;-2.25;90.63
8705;BME280;4389;41.932;25.904;2023-02-16T04:00:12;102015.28;;;-2.18;90.44
8705;BME280;4389;41.932;25.904;2023-02-16T04:02:39;102006.69;;;-2.20;90.48
8705;BME280;4389;41.932;25.904;2023-02-16T04:05:07;102006.88;;;-2.35;90.39
8705;BME280;4389;41.932;25.904;2023-02-16T04:07:34;102009.38;;;-2.29;90.62
8705;BME280;4389;41.932;25.904;2023-02-16T04:10:01;102009.53;;;-2.43;90.84
8705;BME280;4389;41.932;25.904;2023-02-16T04:12:28;102016.47;;;-2.46;90.82
8705;BME280;4389;41.932;25.904;2023-02-16T04:15:04;102017.41;;;-2.50;91.02
8705;BME280;4389;41.932;25.904;2023-02-16T04:17:31;102018.16;;;-2.41;91.21
8705;BME280;4389;41.932;25.904;2023-02-16T04:19:58;102019.94;;;-2.47;91.36
8705;BME280;4389;41.932;25.904;2023-02-16T04:22:26;102020.03;;;-2.55;91.51
8705;BME280;4389;41.932;25.904;2023-02-16T04:24:53;102027.03;;;-2.63;91.87
8705;BME280;4389;41.932;25.904;2023-02-16T04:27:20;102028.63;;;-2.51;91.98
8705;BME280;4389;41.932;25.904;2023-02-16T04:29:47;102026.91;;;-2.52;92.03
8705;BME280;4389;41.932;25.904;2023-02-16T04:32:14;102026.06;;;-2.51;92.52
8705;BME280;4389;41.932;25.904;2023-02-16T04:34:40;102031.06;;;-2.39;92.71
8705;BME280;4389;41.932;25.904;2023-02-16T04:37:07;102027.53;;;-2.32;92.31
8705;BME280;4389;41.932;25.904;2023-02-16T04:39:35;102034.41;;;-2.28;91.79
8705;BME280;4389;41.932;25.904;2023-02-16T04:42:03;102031.91;;;-2.36;90.97
8705;BME280;4389;41.932;25.904;2023-02-16T04:44:29;102036.25;;;-2.39;90.60
8705;BME280;4389;41.932;25.904;2023-02-16T04:46:56;102034.66;;;-2.52;90.87
8705;BME280;4389;41.932;25.904;2023-02-16T04:49:23;102046.72;;;-2.48;90.64
8705;BME280;4389;41.932;25.904;2023-02-16T04:51:50;102051.13;;;-2.55;90.35
8705;BME280;4389;41.932;25.904;2023-02-16T04:54:17;102056.41;;;-2.65;90.41
8705;BME280;4389;41.932;25.904;2023-02-16T04:56:45;102050.44;;;-2.73;90.88
8705;BME280;4389;41.932;25.904;2023-02-16T04:59:14;102052.13;;;-2.69;91.15
8705;BME280;4389;41.932;25.904;2023-02-16T05:01:41;102056.41;;;-2.68;90.86
8705;BME280;4389;41.932;25.904;2023-02-16T05:04:08;102055.53;;;-2.64;91.07
8705;BME280;4389;41.932;25.904;2023-02-16T05:06:35;102056.38;;;-2.62;91.18
8705;BME280;4389;41.932;25.904;2023-02-16T05:09:02;102053.97;;;-2.80;91.62
8705;BME280;4389;41.932;25.904;2023-02-16T05:11:29;102065.06;;;-2.66;91.72
8705;BME280;4389;41.932;25.904;2023-02-16T05:14:19;102072.66;;;-2.51;92.12
8705;BME280;4389;41.932;25.904;2023-02-16T05:17:03;102062.25;;;-2.48;91.64
8705;BME280;4389;41.932;25.904;2023-02-16T05:19:30;102070.19;;;-2.62;91.96
8705;BME280;4389;41.932;25.904;2023-02-16T05:21:57;102072.69;;;-2.54;91.93
8705;BME280;4389;41.932;25.904;2023-02-16T05:24:24;102069.31;;;-2.59;91.77
8705;BME280;4389;41.932;25.904;2023-02-16T05:26:51;102069.16;;;-2.49;91.43
8705;BME280;4389;41.932;25.904;2023-02-16T05:29:19;102072.63;;;-2.48;90.83
8705;BME280;4389;41.932;25.904;2023-02-16T05:31:46;102070.81;;;-2.40;90.67
8705;BME280;4389;41.932;25.904;2023-02-16T05:34:13;102082.94;;;-2.45;90.60
8705;BME280;4389;41.932;25.904;2023-02-16T05:36:40;102083.75;;;-2.42;90.08
8705;BME280;4389;41.932;25.904;2023-02-16T05:39:07;102082.81;;;-2.30;89.79
8705;BME280;4389;41.932;25.904;2023-02-16T05:41:33;102084.59;;;-2.38;89.62
8705;BME280;4389;41.932;25.904;2023-02-16T05:44:02;102084.47;;;-2.23;89.70
8705;BME280;4389;41.932;25.904;2023-02-16T05:46:33;102088.88;;;-2.33;89.82
8705;BME280;4389;41.932;25.904;2023-02-16T05:49:00;102089.72;;;-2.32;90.25
8705;BME280;4389;41.932;25.904;2023-02-16T05:51:27;102079.16;;;-2.14;89.98
8705;BME280;4389;41.932;25.904;2023-02-16T05:53:55;102089.47;;;-2.08;90.12
8705;BME280;4389;41.932;25.904;2023-02-16T05:56:22;102087.75;;;-2.09;90.05
8705;BME280;4389;41.932;25.904;2023-02-16T05:58:49;102095.44;;;-2.03;89.82
8705;BME280;4389;41.932;25.904;2023-02-16T06:01:17;102086.63;;;-1.87;90.38
8705;BME280;4389;41.932;25.904;2023-02-16T06:03:45;102085.47;;;-1.65;89.62
8705;BME280;4389;41.932;25.904;2023-02-16T06:06:12;102091.34;;;-1.51;88.67
8705;BME280;4389;41.932;25.904;2023-02-16T06:08:38;102091.44;;;-1.60;88.68
8705;BME280;4389;41.932;25.904;2023-02-16T06:11:06;102098.25;;;-1.53;88.84
8705;BME280;4389;41.932;25.904;2023-02-16T06:13:52;102096.22;;;-1.30;89.13
8705;BME280;4389;41.932;25.904;2023-02-16T06:16:23;102099.50;;;-1.19;87.90
8705;BME280;4389;41.932;25.904;2023-02-16T06:18:53;102103.66;;;-1.08;88.22
8705;BME280;4389;41.932;25.904;2023-02-16T06:21:20;102111.28;;;-0.97;88.72
8705;BME280;4389;41.932;25.904;2023-02-16T06:23:47;102106.91;;;-0.94;89.17
8705;BME280;4389;41.932;25.904;2023-02-16T06:26:14;102106.78;;;-0.86;89.26
8705;BME280;4389;41.932;25.904;2023-02-16T06:28:41;102106.81;;;-0.89;88.58
8705;BME280;4389;41.932;25.904;2023-02-16T06:31:08;102110.19;;;-0.83;89.67
8705;BME280;4389;41.932;25.904;2023-02-16T06:33:35;102112.28;;;-0.53;88.71
8705;BME280;4389;41.932;25.904;2023-02-16T06:36:05;102117.63;;;-0.62;88.50
8705;BME280;4389;41.932;25.904;2023-02-16T06:38:32;102113.81;;;-0.43;88.57
8705;BME280;4389;41.932;25.904;2023-02-16T06:40:59;102117.22;;;-0.39;88.03
8705;BME280;4389;41.932;25.904;2023-02-16T06:43:26;102120.00;;;-0.48;88.11
8705;BME280;4389;41.932;25.904;2023-02-16T06:45:53;102118.56;;;-0.17;88.23
8705;BME280;4389;41.932;25.904;2023-02-16T06:48:19;102120.09;;;-0.06;87.27
8705;BME280;4389;41.932;25.904;2023-02-16T06:50:46;102120.75;;;0.03;87.17
8705;BME280;4389;41.932;25.904;2023-02-16T06:53:14;102122.41;;;0.07;87.90
8705;BME280;4389;41.932;25.904;2023-02-16T06:55:41;102120.88;;;-0.03;87.85
8705;BME280;4389;41.932;25.904;2023-02-16T06:58:08;102128.28;;;0.17;88.32
8705;BME280;4389;41.932;25.904;2023-02-16T07:00:35;102118.72;;;0.17;89.37
8705;BME280;4389;41.932;25.904;2023-02-16T07:03:02;102121.75;;;0.40;88.88
8705;BME280;4389;41.932;25.904;2023-02-16T07:05:29;102123.44;;;0.43;88.08
8705;BME280;4389;41.932;25.904;2023-02-16T07:07:56;102131.00;;;0.53;87.89
8705;BME280;4389;41.932;25.904;2023-02-16T07:10:24;102126.03;;;0.82;87.72
8705;BME280;4389;41.932;25.904;2023-02-16T07:12:51;102123.97;;;0.96;86.57
8705;BME280;4389;41.932;25.904;2023-02-16T07:15:18;102129.72;;;1.10;86.09
8705;BME280;4389;41.932;25.904;2023-02-16T07:17:45;102122.59;;;1.17;86.13
8705;BME280;4389;41.932;25.904;2023-02-16T07:20:12;102123.00;;;1.35;86.38
8705;BME280;4389;41.932;25.904;2023-02-16T07:22:39;102129.69;;;1.45;86.15
8705;BME280;4389;41.932;25.904;2023-02-16T07:25:06;102118.72;;;1.66;85.47
8705;BME280;4389;41.932;25.904;2023-02-16T07:27:34;102114.75;;;1.85;84.77
8705;BME280;4389;41.932;25.904;2023-02-16T07:30:01;102112.53;;;1.70;85.00
8705;BME280;4389;41.932;25.904;2023-02-16T07:32:29;102107.41;;;1.99;85.70
8705;BME280;4389;41.932;25.904;2023-02-16T07:34:56;102110.31;;;2.19;85.06
8705;BME280;4389;41.932;25.904;2023-02-16T07:37:23;102109.06;;;2.32;85.06
8705;BME280;4389;41.932;25.904;2023-02-16T07:39:50;102110.06;;;2.57;84.78
8705;BME280;4389;41.932;25.904;2023-02-16T07:42:17;102107.16;;;2.66;84.16
8705;BME280;4389;41.932;25.904;2023-02-16T07:44:45;102110.94;;;2.85;83.57
8705;BME280;4389;41.932;25.904;2023-02-16T07:47:14;102106.50;;;2.87;83.40
8705;BME280;4389;41.932;25.904;2023-02-16T07:49:41;102107.75;;;3.03;83.21
8705;BME280;4389;41.932;25.904;2023-02-16T07:52:07;102099.63;;;3.12;82.78
8705;BME280;4389;41.932;25.904;2023-02-16T07:54:34;102102.38;;;3.34;82.37
8705;BME280;4389;41.932;25.904;2023-02-16T07:57:01;102093.28;;;3.45;81.88
8705;BME280;4389;41.932;25.904;2023-02-16T07:59:28;102098.59;;;3.68;81.35
8705;BME280;4389;41.932;25.904;2023-02-16T08:01:56;102093.56;;;3.87;80.39
8705;BME280;4389;41.932;25.904;2023-02-16T08:04:23;102092.22;;;4.00;79.48
8705;BME280;4389;41.932;25.904;2023-02-16T08:06:50;102092.84;;;4.06;79.63
8705;BME280;4389;41.932;25.904;2023-02-16T08:09:17;102091.47;;;4.21;77.78
8705;BME280;4389;41.932;25.904;2023-02-16T08:11:44;102090.50;;;4.23;78.39
8705;BME280;4389;41.932;25.904;2023-02-16T08:14:11;102084.94;;;4.30;77.49
8705;BME280;4389;41.932;25.904;2023-02-16T08:16:38;102082.06;;;4.38;77.10
8705;BME280;4389;41.932;25.904;2023-02-16T08:19:06;102084.38;;;4.45;77.18
8705;BME280;4389;41.932;25.904;2023-02-16T08:21:35;102086.50;;;4.59;76.24
8705;BME280;4389;41.932;25.904;2023-02-16T08:24:05;102082.13;;;4.81;76.86
8705;BME280;4389;41.932;25.904;2023-02-16T08:26:34;102088.47;;;4.97;76.95
8705;BME280;4389;41.932;25.904;2023-02-16T08:29:04;102085.69;;;5.00;75.21
8705;BME280;4389;41.932;25.904;2023-02-16T08:31:34;102088.91;;;5.08;75.96
8705;BME280;4389;41.932;25.904;2023-02-16T08:34:03;102088.09;;;5.06;74.39
8705;BME280;4389;41.932;25.904;2023-02-16T08:36:33;102080.16;;;5.07;75.44
8705;BME280;4389;41.932;25.904;2023-02-16T08:39:03;102075.16;;;5.23;74.43
8705;BME280;4389;41.932;25.904;2023-02-16T08:41:33;102074.28;;;5.44;74.86
8705;BME280;4389;41.932;25.904;2023-02-16T08:44:01;102068.13;;;5.65;73.83
8705;BME280;4389;41.932;25.904;2023-02-16T08:46:28;102078.22;;;5.74;72.99
8705;BME280;4389;41.932;25.904;2023-02-16T08:48:56;102073.44;;;5.83;72.21
8705;BME280;4389;41.932;25.904;2023-02-16T08:51:26;102073.63;;;5.99;72.14
8705;BME280;4389;41.932;25.904;2023-02-16T08:53:56;102073.75;;;5.96;71.02
8705;BME280;4389;41.932;25.904;2023-02-16T08:56:23;102074.78;;;6.12;72.06
8705;BME280;4389;41.932;25.904;2023-02-16T08:58:50;102074.94;;;6.09;70.60
8705;BME280;4389;41.932;25.904;2023-02-16T09:01:17;102079.63;;;6.21;71.55
8705;BME280;4389;41.932;25.904;2023-02-16T09:03:45;102079.50;;;6.42;70.11
8705;BME280;4389;41.932;25.904;2023-02-16T09:06:15;102071.84;;;6.56;70.44
8705;BME280;4389;41.932;25.904;2023-02-16T09:08:42;102082.50;;;6.72;69.21
8705;BME280;4389;41.932;25.904;2023-02-16T09:11:13;102075.31;;;6.75;68.97
8705;BME280;4389;41.932;25.904;2023-02-16T09:13:41;102078.00;;;6.74;67.60
8705;BME280;4389;41.932;25.904;2023-02-16T09:16:10;102081.50;;;6.93;67.32
8705;BME280;4389;41.932;25.904;2023-02-16T09:18:38;102082.56;;;7.06;66.44
8705;BME280;4389;41.932;25.904;2023-02-16T09:21:10;102082.63;;;7.23;65.14
8705;BME280;4389;41.932;25.904;2023-02-16T09:23:41;102080.00;;;7.23;64.36
8705;BME280;4389;41.932;25.904;2023-02-16T09:26:08;102074.72;;;7.23;64.16
8705;BME280;4389;41.932;25.904;2023-02-16T09:28:39;102070.41;;;7.39;63.44
8705;BME280;4389;41.932;25.904;2023-02-16T09:31:09;102066.06;;;7.55;63.04
8705;BME280;4389;41.932;25.904;2023-02-16T09:33:36;102072.88;;;7.59;61.98
8705;BME280;4389;41.932;25.904;2023-02-16T09:36:04;102066.06;;;7.72;62.39
8705;BME280;4389;41.932;25.904;2023-02-16T09:38:31;102061.00;;;7.84;61.81
8705;BME280;4389;41.932;25.904;2023-02-16T09:41:04;102061.72;;;7.88;61.74
8705;BME280;4389;41.932;25.904;2023-02-16T09:43:39;102059.28;;;8.00;61.86
8705;BME280;4389;41.932;25.904;2023-02-16T09:46:13;102055.22;;;8.10;60.94
8705;BME280;4389;41.932;25.904;2023-02-16T09:48:43;102048.16;;;8.11;60.98
8705;BME280;4389;41.932;25.904;2023-02-16T09:51:15;102047.38;;;8.26;61.31
8705;BME280;4389;41.932;25.904;2023-02-16T09:53:45;102040.16;;;8.29;60.69
8705;BME280;4389;41.932;25.904;2023-02-16T09:56:56;102046.63;;;8.24;60.27
8705;BME280;4389;41.932;25.904;2023-02-16T09:59:39;102036.75;;;8.27;60.37
8705;BME280;4389;41.932;25.904;2023-02-16T10:05:18;102031.97;;;8.34;60.06
8705;BME280;4389;41.932;25.904;2023-02-16T10:07:58;102028.00;;;8.42;59.37
8705;BME280;4389;41.932;25.904;2023-02-16T10:10:32;102018.88;;;8.48;59.05
8705;BME280;4389;41.932;25.904;2023-02-16T10:13:04;102020.09;;;8.58;58.95
8705;BME280;4389;41.932;25.904;2023-02-16T10:15:36;102014.13;;;8.70;59.06
8705;BME280;4389;41.932;25.904;2023-02-16T10:18:08;102008.56;;;8.89;59.09
8705;BME280;4389;41.932;25.904;2023-02-16T10:20:41;102003.28;;;8.89;59.99
8705;BME280;4389;41.932;25.904;2023-02-16T10:23:19;101987.69;;;9.00;59.76
8705;BME280;4389;41.932;25.904;2023-02-16T10:25:53;101995.66;;;9.14;59.62
8705;BME280;4389;41.932;25.904;2023-02-16T10:28:30;101991.06;;;9.18;59.58
8705;BME280;4389;41.932;25.904;2023-02-16T10:31:04;101986.38;;;9.37;59.51
8705;BME280;4389;41.932;25.904;2023-02-16T10:33:40;101984.31;;;9.42;58.57
8705;BME280;4389;41.932;25.904;2023-02-16T10:36:15;101985.22;;;9.56;59.35
8705;BME280;4389;41.932;25.904;2023-02-16T10:38:53;101977.16;;;9.58;59.28
8705;BME280;4389;41.932;25.904;2023-02-16T10:41:30;101970.84;;;9.74;59.23
8705;BME280;4389;41.932;25.904;2023-02-16T10:44:02;101971.22;;;9.82;58.26
8705;BME280;4389;41.932;25.904;2023-02-16T10:46:39;101967.75;;;9.82;58.30
8705;BME280;4389;41.932;25.904;2023-02-16T10:49:09;101963.22;;;9.84;57.38
8705;BME280;4389;41.932;25.904;2023-02-16T10:51:37;101961.97;;;9.89;58.45
8705;BME280;4389;41.932;25.904;2023-02-16T10:54:09;101953.69;;;9.95;57.26
8705;BME280;4389;41.932;25.904;2023-02-16T10:56:47;101946.50;;;9.97;57.56
8705;BME280;4389;41.932;25.904;2023-02-16T10:59:20;101946.69;;;9.94;57.67
8705;BME280;4389;41.932;25.904;2023-02-16T11:01:50;101930.63;;;9.97;58.46
8705;BME280;4389;41.932;25.904;2023-02-16T11:04:33;101932.16;;;10.15;57.15
8705;BME280;4389;41.932;25.904;2023-02-16T11:07:02;101929.78;;;10.25;57.38
8705;BME280;4389;41.932;25.904;2023-02-16T11:09:30;101915.31;;;10.30;57.83
8705;BME280;4389;41.932;25.904;2023-02-16T11:11:58;101902.13;;;10.43;56.76
8705;BME280;4389;41.932;25.904;2023-02-16T11:14:27;101909.34;;;10.53;56.65
8705;BME280;4389;41.932;25.904;2023-02-16T11:17:08;101908.97;;;10.59;56.64
8705;BME280;4389;41.932;25.904;2023-02-16T11:19:37;101895.72;;;10.59;55.70
8705;BME280;4389;41.932;25.904;2023-02-16T11:22:05;101893.28;;;10.56;55.84
8705;BME280;4389;41.932;25.904;2023-02-16T11:24:35;101890.34;;;10.61;55.96
8705;BME280;4389;41.932;25.904;2023-02-16T11:27:04;101886.97;;;10.71;55.86
8705;BME280;4389;41.932;25.904;2023-02-16T11:29:32;101879.38;;;10.79;55.77
8705;BME280;4389;41.932;25.904;2023-02-16T11:32:05;101886.03;;;10.85;55.10
8705;BME280;4389;41.932;25.904;2023-02-16T11:34:35;101884.44;;;10.82;54.88
8705;BME280;4389;41.932;25.904;2023-02-16T11:37:05;101874.94;;;10.80;55.69
8705;BME280;4389;41.932;25.904;2023-02-16T11:39:38;101879.78;;;10.86;55.56
8705;BME280;4389;41.932;25.904;2023-02-16T11:42:07;101878.34;;;11.07;55.44
8705;BME280;4389;41.932;25.904;2023-02-16T11:44:37;101880.91;;;11.08;54.96
8705;BME280;4389;41.932;25.904;2023-02-16T11:47:07;101879.53;;;11.15;54.22
8705;BME280;4389;41.932;25.904;2023-02-16T11:49:45;101862.47;;;11.19;54.24
8705;BME280;4389;41.932;25.904;2023-02-16T11:52:30;101866.28;;;11.28;53.78
8705;BME280;4389;41.932;25.904;2023-02-16T11:54:59;101866.50;;;11.37;53.19
8705;BME280;4389;41.932;25.904;2023-02-16T11:57:28;101851.22;;;11.41;52.43
8705;BME280;4389;41.932;25.904;2023-02-16T11:59:57;101848.88;;;11.49;52.82
8705;BME280;4389;41.932;25.904;2023-02-16T12:02:37;101844.84;;;11.56;52.01
8705;BME280;4389;41.932;25.904;2023-02-16T12:05:22;101851.44;;;11.63;52.67
8705;BME280;4389;41.932;25.904;2023-02-16T12:10:51;101836.88;;;11.68;50.71
8705;BME280;4389;41.932;25.904;2023-02-16T12:13:30;101833.06;;;11.72;51.71
8705;BME280;4389;41.932;25.904;2023-02-16T12:16:04;101831.44;;;11.82;52.38
8705;BME280;4389;41.932;25.904;2023-02-16T12:18:42;101809.78;;;11.88;51.08
8705;BME280;4389;41.932;25.904;2023-02-16T12:21:19;101813.19;;;11.90;51.77
8705;BME280;4389;41.932;25.904;2023-02-16T12:23:54;101811.44;;;12.02;50.37
8705;BME280;4389;41.932;25.904;2023-02-16T12:26:34;101811.00;;;12.08;50.73
8705;BME280;4389;41.932;25.904;2023-02-16T12:29:11;101806.34;;;11.99;50.30
8705;BME280;4389;41.932;25.904;2023-02-16T12:32:03;101811.84;;;12.08;51.00
8705;BME280;4389;41.932;25.904;2023-02-16T12:34:43;101802.28;;;12.06;50.75
8705;BME280;4389;41.932;25.904;2023-02-16T12:37:20;101801.00;;;12.11;49.59
8705;BME280;4389;41.932;25.904;2023-02-16T12:39:58;101803.53;;;12.13;49.78
8705;BME280;4389;41.932;25.904;2023-02-16T12:42:43;101799.72;;;12.17;49.29
8705;BME280;4389;41.932;25.904;2023-02-16T12:45:15;101797.16;;;12.15;49.96
8705;BME280;4389;41.932;25.904;2023-02-16T12:47:46;101794.41;;;12.17;50.08
8705;BME280;4389;41.932;25.904;2023-02-16T12:50:19;101783.78;;;12.17;50.14
8705;BME280;4389;41.932;25.904;2023-02-16T12:52:51;101782.09;;;12.16;48.94
8705;BME280;4389;41.932;25.904;2023-02-16T12:55:25;101778.16;;;12.32;49.52
8705;BME280;4389;41.932;25.904;2023-02-16T12:57:58;101782.81;;;12.41;49.34
8705;BME280;4389;41.932;25.904;2023-02-16T13:00:37;101775.28;;;12.35;49.15
8705;BME280;4389;41.932;25.904;2023-02-16T13:03:14;101770.53;;;12.28;49.47
8705;BME280;4389;41.932;25.904;2023-02-16T13:05:50;101779.69;;;12.47;49.25
8705;BME280;4389;41.932;25.904;2023-02-16T13:08:25;101770.28;;;12.54;48.72
8705;BME280;4389;41.932;25.904;2023-02-16T13:10:59;101767.84;;;12.51;48.51
8705;BME280;4389;41.932;25.904;2023-02-16T13:13:32;101762.94;;;12.58;48.54
8705;BME280;4389;41.932;25.904;2023-02-16T13:16:05;101755.09;;;12.56;48.56
8705;BME280;4389;41.932;25.904;2023-02-16T13:18:38;101749.06;;;12.65;48.58
8705;BME280;4389;41.932;25.904;2023-02-16T13:21:13;101752.69;;;12.64;48.07
8705;BME280;4389;41.932;25.904;2023-02-16T13:23:53;101753.16;;;12.58;48.05
8705;BME280;4389;41.932;25.904;2023-02-16T13:26:54;101742.31;;;12.61;49.02
8705;BME280;4389;41.932;25.904;2023-02-16T13:29:42;101741.81;;;12.56;48.78
8705;BME280;4389;41.932;25.904;2023-02-16T13:32:43;101743.25;;;12.49;49.28
8705;BME280;4389;41.932;25.904;2023-02-16T13:35:34;101732.38;;;12.52;48.98
8705;BME280;4389;41.932;25.904;2023-02-16T13:38:25;101734.16;;;12.41;49.20